createdAt,value
2022-09-20T10:04:17.002Z,0
2022-09-20T10:08:58.187Z,7.2
2022-09-20T10:13:40.504Z,5.3
2022-09-20T10:18:22.805Z,6.5
2022-09-20T10:23:05.023Z,10
2022-09-20T10:27:47.338Z,4.6
2022-09-20T10:32:29.668Z,4.5
2022-09-20T10:37:11.859Z,5.6
2022-09-20T10:41:54.172Z,7.1
2022-09-20T10:46:36.503Z,4.6
2022-09-20T10:51:18.818Z,8
2022-09-20T10:56:01.034Z,7.6
2022-09-20T11:00:43.316Z,1.2
2022-09-20T11:05:25.534Z,4.4
2022-09-20T11:10:07.845Z,6
2022-09-20T11:14:50.167Z,1.4
2022-09-20T11:19:32.395Z,2
2022-09-20T11:24:14.684Z,4.69
2022-09-20T11:28:56.993Z,3.8
2022-09-20T11:33:39.206Z,3.8
2022-09-20T11:38:20.524Z,1
2022-09-20T11:43:01.826Z,2.9
2022-09-20T11:47:44.143Z,11.1
2022-09-20T11:52:26.355Z,4
2022-09-20T11:57:08.663Z,2.09
2022-09-20T12:01:50.978Z,0.8
2022-09-20T12:06:33.192Z,2.2
2022-09-20T12:11:15.502Z,0.5
2022-09-20T12:15:57.812Z,1
2022-09-20T12:20:40.067Z,1.3
2022-09-20T12:25:22.343Z,1.7
2022-09-20T12:30:04.660Z,4.69
2022-09-20T12:34:47.026Z,2
2022-09-20T12:39:29.176Z,1.8
2022-09-20T12:44:10.486Z,1.6
2022-09-20T12:48:52.807Z,3.4
2022-09-20T12:53:35.015Z,2.9
2022-09-20T12:58:17.342Z,2.09
2022-09-20T13:02:59.657Z,1.2
2022-09-20T13:07:41.853Z,3.2
2022-09-20T13:12:24.164Z,1.8
2022-09-20T13:17:06.505Z,3.2
2022-09-20T13:21:48.687Z,7.1
2022-09-20T13:26:30.999Z,4.5
2022-09-20T13:31:12.310Z,0.6
2022-09-20T13:35:53.623Z,3.8
2022-09-20T13:40:34.935Z,1.9
2022-09-20T13:45:16.243Z,4.4
2022-09-20T13:49:58.455Z,0.7
2022-09-20T13:54:40.766Z,2
2022-09-20T13:59:23.077Z,0.6
2022-09-20T14:04:05.292Z,2
2022-09-20T14:08:47.609Z,3.7
2022-09-20T14:13:29.922Z,0.1
2022-09-20T14:18:12.173Z,3
2022-09-20T14:22:54.438Z,1.9
2022-09-20T14:27:36.753Z,1.5
2022-09-20T14:32:18.962Z,1.5
2022-09-20T14:37:01.284Z,1.4
2022-09-20T14:41:43.595Z,1.4
2022-09-20T14:46:24.805Z,0.6
2022-09-20T14:51:07.114Z,1.1
2022-09-20T14:55:49.429Z,2.5
2022-09-20T15:00:31.639Z,5.4
2022-09-20T15:05:13.972Z,3.3
2022-09-20T15:09:56.265Z,0.5
2022-09-20T15:14:38.499Z,2.7
2022-09-20T15:19:19.832Z,4.19
2022-09-20T15:24:01.097Z,4.9
2022-09-20T15:28:42.414Z,1.1
2022-09-20T15:33:23.716Z,3
2022-09-20T15:38:06.028Z,2.09
2022-09-20T15:42:48.244Z,3.2
2022-09-20T15:47:30.602Z,2
2022-09-20T15:52:12.863Z,2.6
2022-09-20T15:56:55.079Z,1.5
2022-09-20T16:01:37.481Z,5.8
2022-09-20T16:06:19.702Z,5
2022-09-20T16:11:01.910Z,8.7
2022-09-20T16:15:44.225Z,6.1
2022-09-20T16:20:26.537Z,1.7
2022-09-20T16:25:08.749Z,3.6
2022-09-20T16:29:51.060Z,2.4
2022-09-20T16:34:32.369Z,4.19
2022-09-20T16:39:14.698Z,6.5
2022-09-20T16:43:56.899Z,8.5
2022-09-20T16:48:39.206Z,2.4
2022-09-20T16:53:21.516Z,3.7
2022-09-20T16:58:03.724Z,8.2
2022-09-20T17:02:46.090Z,6.7
2022-09-20T17:07:28.362Z,2.7
2022-09-20T17:12:09.663Z,2.3
2022-09-20T17:16:50.978Z,2.2
2022-09-20T17:21:32.311Z,7
2022-09-20T17:26:13.492Z,4.9
2022-09-20T17:30:55.801Z,2.6
2022-09-20T17:40:20.336Z,3.6
2022-09-20T17:45:02.644Z,12.7
2022-09-20T17:49:44.948Z,10.9
2022-09-20T17:54:27.168Z,11.2
2022-09-20T17:59:09.536Z,8.5
2022-09-20T18:03:51.782Z,7.2
2022-09-20T18:08:34.093Z,7
2022-09-20T18:13:16.348Z,7.9
2022-09-20T18:17:58.661Z,8.7
2022-09-20T18:22:40.940Z,12
2022-09-20T18:27:22.139Z,15.5
2022-09-20T18:32:04.447Z,14.3
2022-09-20T18:36:46.800Z,23.1
2022-09-20T18:41:29.081Z,20.6
2022-09-20T18:46:11.281Z,31.2
2022-09-20T18:50:53.591Z,39.9
2022-09-20T18:55:35.922Z,28.7
2022-09-20T19:00:18.114Z,29.9
2022-09-20T19:04:59.457Z,23.5
2022-09-20T19:09:40.734Z,27
2022-09-20T19:14:22.078Z,24.9
2022-09-20T19:19:03.383Z,34
2022-09-20T19:23:45.662Z,27.7
2022-09-20T19:28:27.885Z,44.1
2022-09-20T19:33:10.199Z,38.4
2022-09-20T19:37:52.495Z,30.3
2022-09-20T19:42:34.810Z,18.5
2022-09-20T19:47:17.018Z,21.3
2022-09-20T19:51:59.355Z,29.3
2022-09-20T19:56:41.644Z,48.6
2022-09-20T20:01:23.861Z,47.5
2022-09-20T20:06:06.171Z,27.1
2022-09-20T20:10:48.519Z,18.1
2022-09-20T20:15:30.686Z,18.29
2022-09-20T20:20:11.998Z,31.5
2022-09-20T20:24:54.331Z,26.7
2022-09-20T20:29:36.619Z,29.9
2022-09-20T20:34:18.831Z,26.2
2022-09-20T20:39:01.179Z,29.6
2022-09-20T20:43:43.466Z,23.5
2022-09-20T20:48:25.663Z,39.09
2022-09-20T20:53:07.975Z,41.7
2022-09-20T20:57:50.368Z,26.9
2022-09-20T21:02:31.599Z,28.5
2022-09-20T21:07:12.909Z,31.6
2022-09-20T21:11:55.122Z,38.8
2022-09-20T21:16:37.425Z,51.1
2022-09-20T21:21:19.738Z,51.6
2022-09-20T21:26:01.049Z,48.2
2022-09-20T21:30:42.359Z,50.5
2022-09-20T21:35:24.572Z,35.3
2022-09-20T21:40:06.880Z,41.1
2022-09-20T21:44:49.194Z,42.9
2022-09-20T21:49:31.415Z,35
2022-09-20T21:54:13.717Z,44.8
2022-09-20T21:58:56.029Z,42.2
2022-09-20T22:03:38.348Z,51.3
2022-09-20T22:08:20.553Z,32.7
2022-09-20T22:13:02.865Z,40.5
2022-09-20T22:17:45.176Z,51.4
2022-09-20T22:22:27.387Z,56.9
2022-09-20T22:27:09.698Z,84.3
2022-09-20T22:31:51.016Z,106.6
2022-09-20T22:36:33.319Z,104.1
2022-09-20T22:41:15.533Z,166.4
2022-09-20T22:45:57.840Z,173.7
2022-09-20T22:50:40.151Z,154.6
2022-09-20T22:55:22.365Z,196.4
2022-09-20T23:00:04.678Z,149.1
2022-09-20T23:04:46.989Z,147.6
2022-09-20T23:09:29.195Z,236.4
2022-09-20T23:14:11.512Z,128.1
2022-09-20T23:18:53.821Z,140.3
2022-09-20T23:23:36.144Z,105.9
2022-09-20T23:28:18.343Z,22.9
2022-09-20T23:32:59.651Z,20.6
2022-09-20T23:37:41.969Z,27.3
2022-09-20T23:42:24.190Z,50.8
2022-09-20T23:47:06.482Z,38
2022-09-20T23:51:48.797Z,104.3
2022-09-20T23:56:31.111Z,144.6
